Time;durP1;ratioP1;P1;durP2;ratioP2;P2;SDS_P1;SDS_P2;PMS_P1;PMS_P2;Temp;Humidity;BMP_temperature;BMP_pressure;BME280_temperature;BME280_humidity;BME280_pressure;Samples;Min_cycle;Max_cycle;Signal;HPM_P1;HPM_P2
2022/12/03 00:01:13;;;;;;;5.22;2.75;;;;;;;2.07;82.22;102589.13;5076745;27;99665;-31
2022/12/03 00:03:38;;;;;;;6.22;2.80;;;;;;;2.05;82.58;102582.88;5076768;27;96633;-30
2022/12/03 00:06:04;;;;;;;4.40;2.05;;;;;;;2.07;82.97;102589.13;5077031;27;96758;-31
2022/12/03 00:08:29;;;;;;;7.05;4.72;;;;;;;2.04;82.58;102576.66;5077112;27;96754;-31
2022/12/03 00:10:54;;;;;;;6.88;3.08;;;;;;;2.01;82.51;102579.31;5076502;27;110337;-31
2022/12/03 00:13:20;;;;;;;4.47;3.03;;;;;;;2.06;82.28;102587.34;5076308;27;122266;-30
2022/12/03 00:15:45;;;;;;;11.35;4.00;;;;;;;2.05;82.79;102588.22;5077104;27;96465;-30
2022/12/03 00:18:10;;;;;;;2.78;1.52;;;;;;;2.04;82.35;102583.78;5076182;27;103110;-30
2022/12/03 00:20:36;;;;;;;6.75;2.95;;;;;;;2.04;82.89;102582.00;5075867;27;99130;-30
2022/12/03 00:23:01;;;;;;;5.75;4.22;;;;;;;2.05;82.50;102581.13;5076189;27;98690;-30
2022/12/03 00:25:27;;;;;;;6.65;3.15;;;;;;;2.06;82.14;102582.00;5076672;27;100670;-30
2022/12/03 00:27:52;;;;;;;3.67;2.80;;;;;;;2.05;82.39;102582.88;5076712;27;96788;-31
2022/12/03 00:30:18;;;;;;;5.05;2.88;;;;;;;2.03;82.47;102574.88;5076588;27;97293;-30
2022/12/03 00:32:43;;;;;;;3.75;2.15;;;;;;;2.04;82.14;102575.75;5076395;27;97443;-30
2022/12/03 00:35:09;;;;;;;4.78;2.70;;;;;;;2.01;82.83;102565.97;5076506;27;96560;-31
2022/12/03 00:37:35;;;;;;;3.83;3.00;;;;;;;2.04;82.90;102579.31;5058286;27;96832;-30
2022/12/03 00:40:01;;;;;;;3.55;2.25;;;;;;;1.99;82.88;102573.06;5076103;27;99523;-30
2022/12/03 00:42:27;;;;;;;13.52;5.97;;;;;;;2.02;83.04;102578.41;5057692;27;101357;-32
2022/12/03 00:44:53;;;;;;;2.70;2.28;;;;;;;1.98;82.74;102573.97;5075956;27;96605;-30
2022/12/03 00:47:18;;;;;;;6.30;3.13;;;;;;;1.97;82.48;102565.94;5076336;27;96890;-30
2022/12/03 00:49:43;;;;;;;4.57;2.75;;;;;;;2.02;83.14;102566.84;5075734;27;110088;-30
2022/12/03 00:52:08;;;;;;;3.80;2.50;;;;;;;2.04;83.21;102567.75;5075867;27;109282;-30
2022/12/03 00:54:34;;;;;;;11.35;4.75;;;;;;;2.03;83.23;102571.31;5075765;27;105158;-30
2022/12/03 00:56:59;;;;;;;3.67;1.92;;;;;;;2.02;83.36;102561.50;5076355;27;96546;-31
2022/12/03 00:59:24;;;;;;;4.88;2.90;;;;;;;2.03;83.38;102557.94;5076096;27;97994;-31
2022/12/03 01:01:50;;;;;;;6.10;3.40;;;;;;;2.01;83.51;102557.94;5076398;27;97293;-30
2022/12/03 01:04:15;;;;;;;7.88;3.35;;;;;;;2.07;83.23;102557.97;5076456;27;96436;-31
2022/12/03 01:06:40;;;;;;;7.90;2.75;;;;;;;2.04;83.58;102541.91;5075904;27;96702;-30
2022/12/03 01:09:06;;;;;;;8.20;3.67;;;;;;;2.05;83.51;102558.81;5075424;27;105605;-30
2022/12/03 01:11:37;;;;;;;8.38;4.32;;;;;;;2.02;83.63;102548.13;5075872;27;97458;-32
2022/12/03 01:14:08;;;;;;;7.07;3.88;;;;;;;2.03;83.40;102555.28;5057665;27;96531;-31
2022/12/03 01:16:34;;;;;;;3.58;2.85;;;;;;;2.00;83.31;102549.91;5076004;27;96838;-31
2022/12/03 01:18:59;;;;;;;9.43;4.90;;;;;;;2.01;83.70;102557.94;5056785;27;101489;-31
2022/12/03 01:21:25;;;;;;;3.95;2.63;;;;;;;2.03;83.07;102555.28;5074940;27;99195;-30
2022/12/03 01:23:50;;;;;;;4.30;2.60;;;;;;;2.01;83.71;102549.03;5075266;27;99702;-31
2022/12/03 01:26:15;;;;;;;7.18;3.90;;;;;;;1.99;83.58;102537.44;5076697;27;96811;-30
2022/12/03 01:28:41;;;;;;;5.63;3.25;;;;;;;1.99;83.42;102543.69;5075550;27;97969;-31
2022/12/03 01:33:51;;;;;;;5.43;3.20;;;;;;;1.98;83.73;102552.59;5075677;27;96449;-30
2022/12/03 01:36:16;;;;;;;6.40;3.58;;;;;;;2.01;83.88;102546.38;5057474;27;96758;-30
2022/12/03 01:38:41;;;;;;;7.07;3.50;;;;;;;1.97;84.10;102542.78;5074990;27;112254;-31
2022/12/03 01:41:07;;;;;;;3.22;2.08;;;;;;;1.98;84.04;102541.00;5074789;27;115710;-30
2022/12/03 01:43:32;;;;;;;4.93;3.45;;;;;;;2.01;83.95;102546.38;5057212;27;96693;-31
2022/12/03 01:45:58;;;;;;;11.80;3.38;;;;;;;2.04;83.99;102539.22;5075737;27;96774;-31
2022/12/03 01:48:23;;;;;;;6.10;2.60;;;;;;;2.01;83.70;102533.88;5056990;27;97361;-30
2022/12/03 01:50:48;;;;;;;5.03;3.28;;;;;;;2.05;83.81;102541.03;5075706;27;97877;-31
2022/12/03 01:53:17;;;;;;;3.95;2.90;;;;;;;2.07;84.18;102538.34;5075558;27;96509;-30
2022/12/03 01:55:43;;;;;;;6.13;4.45;;;;;;;2.04;84.15;102541.00;5057110;27;96794;-30
2022/12/03 01:58:12;;;;;;;6.45;3.65;;;;;;;2.05;84.31;102548.13;5077686;27;99042;-31
2022/12/03 02:00:38;;;;;;;7.80;4.07;;;;;;;2.03;84.26;102536.56;5060145;27;100784;-29
2022/12/03 02:03:11;;;;;;;8.43;4.38;;;;;;;2.04;84.14;102543.69;5079253;27;96481;-30
2022/12/03 02:05:37;;;;;;;4.88;3.88;;;;;;;2.04;84.22;102538.34;5079185;27;96475;-31
2022/12/03 02:08:25;;;;;;;8.50;3.78;;;;;;;2.05;83.90;102546.38;5078809;27;97942;-30
2022/12/03 02:10:51;;;;;;;7.40;3.10;;;;;;;2.03;84.39;102536.56;5068484;27;97514;-30
2022/12/03 02:13:16;;;;;;;4.32;3.88;;;;;;;2.00;83.86;102540.13;5078861;27;96685;-30
2022/12/03 02:15:42;;;;;;;8.25;3.92;;;;;;;2.00;84.20;102541.88;5079399;27;96748;-30
2022/12/03 02:18:08;;;;;;;2.95;2.60;;;;;;;2.00;83.73;102545.47;5077966;27;97907;-30
2022/12/03 02:20:39;;;;;;;4.15;3.00;;;;;;;2.00;83.92;102540.13;5059936;27;101115;-30
2022/12/03 02:23:15;;;;;;;9.18;3.60;;;;;;;2.01;84.16;102549.03;5059500;27;96807;-30
2022/12/03 02:25:40;;;;;;;6.20;2.90;;;;;;;1.99;84.39;102542.78;5060170;27;96675;-31
2022/12/03 02:28:08;;;;;;;5.20;2.60;;;;;;;2.02;84.40;102538.31;5078063;27;106340;-30
2022/12/03 02:30:34;;;;;;;5.93;3.55;;;;;;;2.04;84.08;102535.66;5078166;27;99228;-31
2022/12/03 02:33:00;;;;;;;6.20;3.33;;;;;;;2.04;84.02;102538.34;5078682;27;96602;-30
2022/12/03 02:35:34;;;;;;;3.22;2.35;;;;;;;2.05;84.01;102538.34;5060159;27;96986;-31
2022/12/03 02:38:16;;;;;;;4.88;2.33;;;;;;;2.01;84.05;102536.56;5059672;27;101158;-30
2022/12/03 02:40:44;;;;;;;7.03;3.33;;;;;;;2.03;84.50;102533.91;5060121;27;101110;-31
2022/12/03 02:43:11;;;;;;;3.08;2.72;;;;;;;2.06;84.09;102531.22;5078315;27;96801;-31
2022/12/03 02:45:43;;;;;;;4.03;2.95;;;;;;;2.06;84.07;102528.56;5059973;27;96912;-31
2022/12/03 02:48:34;;;;;;;4.75;2.30;;;;;;;2.04;84.32;102530.31;5058933;27;101134;-30
2022/12/03 02:51:06;;;;;;;9.30;4.72;;;;;;;2.01;84.39;102525.00;5059555;27;100865;-30
2022/12/03 02:53:46;;;;;;;4.70;2.33;;;;;;;1.98;84.56;102520.53;5078491;27;96577;-31
2022/12/03 02:56:15;;;;;;;10.38;3.65;;;;;;;1.99;84.63;102519.63;5059913;27;96649;-31
2022/12/03 02:58:43;;;;;;;3.30;2.05;;;;;;;2.02;84.26;102519.63;5059110;27;100829;-30
2022/12/03 03:01:09;;;;;;;8.70;4.93;;;;;;;2.02;84.74;102516.94;5059143;27;100999;-30
2022/12/03 03:03:36;;;;;;;5.10;2.63;;;;;;;2.05;84.64;102511.63;5059566;27;96623;-31
2022/12/03 03:06:05;;;;;;;7.13;2.33;;;;;;;2.01;84.51;102504.50;5059980;27;96821;-30
2022/12/03 03:08:30;;;;;;;7.07;3.15;;;;;;;1.99;84.74;102506.28;5057970;27;101869;-31
2022/12/03 03:10:58;;;;;;;5.18;2.80;;;;;;;2.01;84.64;102509.84;5077884;27;98047;-30
2022/12/03 03:13:23;;;;;;;6.45;3.22;;;;;;;2.03;84.92;102501.84;5058969;27;96661;-31
2022/12/03 03:15:49;;;;;;;6.88;3.60;;;;;;;2.05;85.01;102506.28;5077929;27;96674;-30
2022/12/03 03:18:15;;;;;;;9.52;4.90;;;;;;;2.04;84.87;102512.50;5076943;27;97809;-31
2022/12/03 03:20:41;;;;;;;3.75;2.53;;;;;;;2.04;84.68;102503.59;5058916;27;100978;-30
2022/12/03 03:23:18;;;;;;;9.38;3.65;;;;;;;2.06;84.71;102508.06;5077445;27;96806;-30
2022/12/03 03:25:48;;;;;;;11.63;4.38;;;;;;;2.07;84.72;102509.84;5059379;27;96947;-31
2022/12/03 03:28:14;;;;;;;4.53;3.08;;;;;;;2.05;84.91;102506.28;5042185;27;101142;-30
2022/12/03 03:30:41;;;;;;;5.78;3.13;;;;;;;2.07;85.00;102498.25;5059316;27;100798;-31
2022/12/03 03:33:06;;;;;;;2.53;2.33;;;;;;;2.06;85.07;102507.16;5077561;27;96474;-30
2022/12/03 03:35:32;;;;;;;4.43;2.50;;;;;;;1.99;84.92;102500.94;5059248;27;96741;-31
2022/12/03 03:37:58;;;;;;;6.07;2.38;;;;;;;2.03;84.86;102496.50;5076948;27;97719;-31
2022/12/03 03:40:24;;;;;;;7.95;2.97;;;;;;;2.08;85.44;102500.06;5077256;27;97366;-30
2022/12/03 03:42:50;;;;;;;5.10;3.97;;;;;;;2.06;85.08;102491.13;5058797;27;97418;-31
2022/12/03 03:45:17;;;;;;;5.55;2.67;;;;;;;2.06;85.27;102485.78;5077516;27;96831;-30
2022/12/03 03:47:43;;;;;;;4.07;2.17;;;;;;;2.07;85.29;102488.47;5058529;27;101266;-30
2022/12/03 03:50:11;;;;;;;7.85;5.38;;;;;;;2.11;85.09;102494.69;5058430;27;101077;-30
2022/12/03 03:52:37;;;;;;;5.38;3.60;;;;;;;2.05;84.73;102490.25;5058909;27;96624;-30
2022/12/03 03:55:04;;;;;;;5.90;2.70;;;;;;;2.08;84.94;102487.56;5059284;27;96790;-30
2022/12/03 03:57:29;;;;;;;6.68;3.38;;;;;;;2.07;84.52;102485.81;5058215;27;101037;-32
2022/12/03 03:59:56;;;;;;;5.72;2.47;;;;;;;2.10;84.50;102498.28;5076697;27;106247;-30
2022/12/03 04:02:23;;;;;;;5.45;2.47;;;;;;;2.09;84.80;102484.00;5076766;27;96648;-30
2022/12/03 04:04:50;;;;;;;4.70;3.42;;;;;;;2.14;84.86;102486.66;5058655;27;96838;-30
2022/12/03 04:07:16;;;;;;;5.20;2.60;;;;;;;2.16;84.97;102479.53;5076739;27;97619;-33
2022/12/03 04:09:41;;;;;;;6.00;2.65;;;;;;;2.15;84.77;102483.13;5076658;27;99323;-30
2022/12/03 04:14:52;;;;;;;6.18;4.05;;;;;;;2.18;84.80;102477.75;5077650;27;96583;-31
2022/12/03 04:17:17;;;;;;;5.70;2.35;;;;;;;2.17;85.08;102472.41;5076454;27;98354;-30
2022/12/03 04:19:42;;;;;;;8.93;4.22;;;;;;;2.21;85.24;102468.84;5076518;27;97997;-30
2022/12/03 04:28:47;;;;;;;4.50;2.15;;;;;;;2.22;85.22;102482.22;5077294;27;96538;-30
2022/12/03 04:30:21;;;;;;;7.40;2.97;;;;;;;2.18;84.82;102458.16;5060806;27;97013;-31
2022/12/03 04:35:41;;;;;;;1.30;1.20;;;;;;;2.19;84.62;102457.25;5077005;27;96509;-31
2022/12/03 04:38:11;;;;;;;6.20;2.05;;;;;;;2.19;84.35;102466.16;5057679;27;99169;-30
2022/12/03 04:43:21;;;;;;;7.43;3.58;;;;;;;2.20;84.56;102454.59;5076454;27;96675;-30
2022/12/03 04:45:46;;;;;;;8.73;3.70;;;;;;;2.25;84.61;102454.59;5076889;27;96850;-30
2022/12/03 04:48:11;;;;;;;5.97;3.13;;;;;;;2.22;84.63;102450.16;5075641;27;113311;-31
2022/12/03 04:50:37;;;;;;;4.60;3.22;;;;;;;2.21;85.02;102451.03;5075808;27;111432;-31
2022/12/03 04:53:02;;;;;;;5.55;2.40;;;;;;;2.23;84.61;102453.69;5075762;27;96630;-30
2022/12/03 04:55:28;;;;;;;2.13;1.40;;;;;;;2.17;84.74;102451.94;5076509;27;97264;-31
2022/12/03 04:57:53;;;;;;;4.85;2.42;;;;;;;2.21;84.87;102448.34;5057359;27;99651;-30
2022/12/03 05:00:18;;;;;;;14.32;4.15;;;;;;;2.23;85.06;102445.69;5075591;27;112214;-30
2022/12/03 05:02:44;;;;;;;5.15;2.08;;;;;;;2.21;84.70;102450.13;5076414;27;96781;-30
2022/12/03 05:05:09;;;;;;;5.47;3.00;;;;;;;2.21;84.78;102439.44;5076270;27;96834;-31
2022/12/03 05:07:35;;;;;;;8.55;4.15;;;;;;;2.24;84.70;102450.13;5075989;27;97960;-30
2022/12/03 05:10:00;;;;;;;5.30;3.03;;;;;;;2.23;84.47;102451.03;5057639;27;100683;-31
2022/12/03 05:12:26;;;;;;;3.28;2.45;;;;;;;2.20;84.50;102445.69;5075925;27;96627;-30
2022/12/03 05:14:51;;;;;;;5.75;2.80;;;;;;;2.17;84.17;102441.25;5076290;27;96733;-31
2022/12/03 05:17:16;;;;;;;3.72;1.92;;;;;;;2.23;84.18;102451.91;5074643;27;99452;-31
2022/12/03 05:22:25;;;;;;;6.45;2.55;;;;;;;2.25;84.25;102449.25;5074768;27;96838;-31
2022/12/03 05:24:51;;;;;;;7.32;3.38;;;;;;;2.22;84.04;102435.91;5075795;27;96739;-30
2022/12/03 05:27:16;;;;;;;7.47;3.22;;;;;;;2.28;84.50;102436.75;5075635;27;99749;-30
2022/12/03 05:29:41;;;;;;;7.53;3.28;;;;;;;2.30;84.65;102432.28;5075744;27;98103;-31
2022/12/03 05:32:07;;;;;;;2.53;1.95;;;;;;;2.31;84.78;102438.53;5074607;27;99921;-30
2022/12/03 05:34:32;;;;;;;6.20;3.22;;;;;;;2.30;84.67;102440.31;5075298;27;111018;-30
2022/12/03 05:36:57;;;;;;;17.00;6.25;;;;;;;2.26;84.67;102440.31;5075231;27;99914;-30
2022/12/03 05:39:22;;;;;;;3.13;1.95;;;;;;;2.17;83.99;102435.91;5074834;27;107832;-30
2022/12/03 05:44:32;;;;;;;5.30;2.65;;;;;;;2.22;84.55;102427.88;5074199;27;96529;-32
2022/12/03 05:46:57;;;;;;;5.72;2.67;;;;;;;2.24;84.28;102426.06;5074970;27;108437;-31
2022/12/03 05:49:22;;;;;;;5.50;3.33;;;;;;;2.26;84.33;102421.59;5074765;27;114727;-30
2022/12/03 05:51:47;;;;;;;3.38;2.13;;;;;;;2.22;84.17;102414.50;5075318;27;96610;-33
2022/12/03 05:54:13;;;;;;;4.57;2.70;;;;;;;2.25;84.70;102418.06;5075001;27;103577;-30
2022/12/03 05:56:38;;;;;;;5.40;3.25;;;;;;;2.23;84.32;102426.97;5074942;27;105120;-30
2022/12/03 05:59:03;;;;;;;7.13;2.70;;;;;;;2.26;84.14;102419.81;5075080;27;103257;-31
2022/12/03 06:01:29;;;;;;;5.05;3.38;;;;;;;2.25;84.04;102417.16;5075122;27;102080;-30
2022/12/03 06:03:54;;;;;;;4.00;1.92;;;;;;;2.25;83.69;102414.50;5075483;27;96756;-31
2022/12/03 06:06:19;;;;;;;3.60;2.30;;;;;;;2.18;83.19;102421.63;5074203;27;114673;-30
2022/12/03 06:08:44;;;;;;;6.97;4.10;;;;;;;2.18;83.68;102410.06;5075029;27;97363;-30
2022/12/03 06:11:10;;;;;;;6.38;2.85;;;;;;;2.21;84.00;102413.59;5074960;27;103592;-31
2022/12/03 06:13:35;;;;;;;9.60;2.53;;;;;;;2.24;83.96;102410.94;5075109;27;97217;-30
2022/12/03 06:16:00;;;;;;;5.50;3.50;;;;;;;2.24;83.75;102413.63;5074466;27;111321;-30
2022/12/03 06:18:25;;;;;;;8.02;3.67;;;;;;;2.25;83.77;102409.16;5074762;27;97933;-32
2022/12/03 06:20:51;;;;;;;6.78;3.67;;;;;;;2.23;83.67;102403.78;5074664;27;105246;-31
2022/12/03 06:23:16;;;;;;;6.75;3.50;;;;;;;2.23;83.93;102398.44;5074964;27;98184;-30
2022/12/03 06:25:41;;;;;;;4.75;3.15;;;;;;;2.18;83.78;102396.69;5074355;27;110708;-30
2022/12/03 06:28:07;;;;;;;10.05;4.05;;;;;;;2.19;84.39;102390.44;5074943;27;97806;-30
2022/12/03 06:30:33;;;;;;;3.08;1.98;;;;;;;2.21;84.28;102400.22;5074712;27;97136;-30
2022/12/03 06:32:58;;;;;;;7.20;3.00;;;;;;;2.24;84.23;102404.69;5075171;27;96755;-30
2022/12/03 06:35:23;;;;;;;6.20;4.15;;;;;;;2.21;83.74;102399.34;5075055;27;98864;-31
2022/12/03 06:37:49;;;;;;;7.22;3.65;;;;;;;2.19;83.87;102399.34;5074465;27;98037;-31
2022/12/03 06:40:15;;;;;;;5.03;2.30;;;;;;;2.22;83.77;102399.34;5075048;27;96534;-30
2022/12/03 06:42:41;;;;;;;6.38;3.50;;;;;;;2.22;83.96;102402.03;5075916;27;96816;-31
2022/12/03 06:45:07;;;;;;;5.35;2.30;;;;;;;2.21;83.85;102386.88;5078170;27;97918;-30
2022/12/03 06:47:32;;;;;;;5.35;2.15;;;;;;;2.23;83.71;102395.78;5059987;27;100790;-30
2022/12/03 06:49:58;;;;;;;4.70;1.83;;;;;;;2.19;83.37;102399.34;5078585;27;96593;-32
2022/12/03 06:52:23;;;;;;;5.75;3.28;;;;;;;2.19;83.19;102393.09;5077640;27;105863;-31
2022/12/03 06:54:48;;;;;;;8.93;3.40;;;;;;;2.23;83.31;102397.56;5077610;27;101452;-30
2022/12/03 06:57:14;;;;;;;6.38;2.88;;;;;;;2.23;83.17;102397.56;5077660;27;110725;-31
2022/12/03 06:59:39;;;;;;;6.05;2.40;;;;;;;2.17;82.60;102398.47;5078458;27;96623;-31
2022/12/03 07:02:04;;;;;;;4.00;1.65;;;;;;;2.15;82.50;102397.59;5078408;27;96733;-30
2022/12/03 07:04:30;;;;;;;4.38;2.83;;;;;;;2.18;83.29;102396.69;5078178;27;97823;-30
2022/12/03 07:06:55;;;;;;;5.40;3.33;;;;;;;2.17;82.88;102397.56;5077766;27;98578;-30
2022/12/03 07:09:20;;;;;;;4.57;3.03;;;;;;;2.17;82.75;102397.56;5078096;27;96453;-31
2022/12/03 07:11:45;;;;;;;4.18;1.90;;;;;;;2.19;83.11;102406.47;5078299;27;96906;-30
2022/12/03 07:14:11;;;;;;;4.65;2.58;;;;;;;2.14;82.54;102409.16;5077723;27;97714;-30
2022/12/03 07:16:37;;;;;;;4.93;2.80;;;;;;;2.12;82.62;102410.94;5077559;27;97765;-30
2022/12/03 07:19:04;;;;;;;6.20;2.55;;;;;;;2.09;82.79;102395.78;5058631;27;96504;-30
2022/12/03 07:21:30;;;;;;;6.68;2.58;;;;;;;2.13;82.75;102407.38;5058398;27;96957;-30
2022/12/03 07:23:55;;;;;;;8.35;4.70;;;;;;;2.16;83.28;102406.50;5077859;27;97515;-31
2022/12/03 07:26:21;;;;;;;2.72;1.55;;;;;;;2.14;82.55;102409.16;5077534;27;97898;-30
2022/12/03 07:28:47;;;;;;;4.10;2.10;;;;;;;2.15;83.11;102424.31;5077638;27;96549;-30
2022/12/03 07:31:12;;;;;;;3.75;2.22;;;;;;;2.13;83.39;102412.72;5077768;27;96770;-30
2022/12/03 07:33:38;;;;;;;5.00;2.80;;;;;;;2.16;83.02;102414.50;5077350;27;97533;-30
2022/12/03 07:36:03;;;;;;;4.97;3.35;;;;;;;2.16;82.99;102420.75;5077693;27;97785;-30
2022/12/03 07:38:28;;;;;;;5.75;3.38;;;;;;;2.18;82.73;102415.41;5077721;27;96609;-32
2022/12/03 07:40:54;;;;;;;4.20;2.88;;;;;;;2.16;82.85;102411.84;5077629;27;96786;-30
2022/12/03 07:43:19;;;;;;;7.78;3.35;;;;;;;2.16;82.37;102415.38;5076673;27;97830;-31
2022/12/03 07:45:44;;;;;;;7.97;4.20;;;;;;;2.17;82.79;102405.59;5076944;27;101888;-30
2022/12/03 07:48:10;;;;;;;6.28;2.60;;;;;;;2.17;82.33;102406.50;5077610;27;96482;-30
2022/12/03 07:50:35;;;;;;;5.07;2.83;;;;;;;2.17;82.09;102414.53;5077071;27;96765;-30
2022/12/03 07:53:00;;;;;;;5.78;2.47;;;;;;;2.12;82.45;102411.84;5076786;27;99707;-31
2022/12/03 07:55:26;;;;;;;3.65;2.50;;;;;;;2.15;82.68;102400.25;5076166;27;97139;-31
2022/12/03 07:57:51;;;;;;;8.18;4.65;;;;;;;2.16;83.17;102403.81;5077281;27;96588;-31
2022/12/03 08:00:18;;;;;;;7.03;3.80;;;;;;;2.19;83.00;102410.03;5077682;27;96897;-30
2022/12/03 08:02:43;;;;;;;7.40;3.00;;;;;;;2.19;82.48;102401.13;5058475;27;101295;-30
2022/12/03 08:05:09;;;;;;;2.78;2.33;;;;;;;2.20;82.28;102392.22;5076605;27;113726;-32
2022/12/03 08:07:34;;;;;;;4.68;2.97;;;;;;;2.21;82.50;102402.91;5076323;27;103090;-30
2022/12/03 08:09:59;;;;;;;8.35;3.50;;;;;;;2.19;82.43;102398.47;5076983;27;96766;-31
2022/12/03 08:12:39;;;;;;;6.03;3.78;;;;;;;2.22;82.62;102403.81;5076890;27;97544;-31
2022/12/03 08:15:26;;;;;;;4.00;3.03;;;;;;;2.22;82.41;102401.16;5058345;27;100742;-30
2022/12/03 08:17:57;;;;;;;3.13;1.83;;;;;;;2.17;81.86;102397.56;5057802;27;96607;-30
2022/12/03 08:20:42;;;;;;;2.88;1.80;;;;;;;2.16;81.60;102401.13;5076743;27;97005;-29
2022/12/03 08:23:17;;;;;;;3.75;1.95;;;;;;;2.13;82.14;102392.22;5058006;27;99076;-31
2022/12/03 08:25:44;;;;;;;6.30;2.78;;;;;;;2.08;82.01;102399.38;5077121;27;97208;-31
2022/12/03 08:28:15;;;;;;;2.53;2.08;;;;;;;2.12;81.99;102405.59;5058037;27;96685;-30
2022/12/03 08:30:42;;;;;;;4.22;2.83;;;;;;;2.09;81.77;102402.94;5058252;27;96777;-32
2022/12/03 08:33:32;;;;;;;4.78;3.28;;;;;;;2.10;81.87;102408.28;5057496;27;101792;-31
2022/12/03 08:35:59;;;;;;;9.80;6.88;;;;;;;2.07;81.83;102399.38;5076623;27;97801;-30
2022/12/03 08:38:25;;;;;;;7.22;4.25;;;;;;;2.05;81.39;102403.81;5058150;27;96539;-31
2022/12/03 08:40:54;;;;;;;8.00;3.75;;;;;;;2.04;81.63;102399.38;5057854;27;96865;-31
2022/12/03 08:43:23;;;;;;;27.35;4.35;;;;;;;2.08;81.68;102402.03;5057734;27;101488;-31
2022/12/03 08:45:50;;;;;;;3.45;2.65;;;;;;;2.11;82.01;102396.69;5057587;27;101623;-31
2022/12/03 08:48:33;;;;;;;3.92;2.65;;;;;;;2.17;81.83;102394.88;5057963;27;96660;-31
2022/12/03 08:51:03;;;;;;;7.43;3.63;;;;;;;2.18;81.96;102391.34;5058337;27;96916;-31
2022/12/03 08:53:33;;;;;;;3.05;2.28;;;;;;;2.12;81.31;102397.56;5057531;27;100872;-31
2022/12/03 08:56:02;;;;;;;2.85;2.35;;;;;;;2.08;81.33;102388.69;5075928;27;99324;-31
2022/12/03 08:58:38;;;;;;;5.05;3.85;;;;;;;2.10;81.74;102392.25;5057079;27;96633;-31
2022/12/03 09:01:09;;;;;;;2.83;2.10;;;;;;;2.11;81.57;102387.78;5057856;27;96655;-31
2022/12/03 09:03:45;;;;;;;5.97;3.72;;;;;;;2.12;81.52;102389.56;5075953;27;97977;-31
2022/12/03 09:06:11;;;;;;;4.82;2.72;;;;;;;2.08;81.22;102393.16;5057327;27;101212;-31
2022/12/03 09:08:36;;;;;;;2.95;1.90;;;;;;;2.06;82.02;102379.78;5075867;27;99168;-31
2022/12/03 09:11:01;;;;;;;7.93;3.28;;;;;;;2.08;81.73;102382.44;5075967;27;96830;-31
2022/12/03 09:13:27;;;;;;;6.32;4.60;;;;;;;2.04;81.90;102375.31;5075509;27;99811;-32
2022/12/03 09:15:52;;;;;;;7.20;2.55;;;;;;;2.04;81.08;102378.00;5076260;27;97332;-33
2022/12/03 09:18:18;;;;;;;2.88;1.77;;;;;;;2.05;81.77;102380.69;5075115;27;100391;-31
2022/12/03 09:20:43;;;;;;;5.35;3.17;;;;;;;2.10;81.38;102381.56;5057464;27;96907;-31
2022/12/03 09:23:08;;;;;;;2.03;1.45;;;;;;;2.08;82.09;102383.34;5056515;27;98208;-32
2022/12/03 09:25:34;;;;;;;2.53;1.70;;;;;;;2.05;81.84;102380.69;5075675;27;97277;-31
2022/12/03 09:27:59;;;;;;;8.80;3.53;;;;;;;2.11;82.14;102388.66;5075823;27;96670;-31
2022/12/03 09:30:24;;;;;;;2.63;1.65;;;;;;;2.06;81.78;102390.47;5076099;27;96809;-31
2022/12/03 09:32:50;;;;;;;6.53;3.83;;;;;;;2.06;81.39;102384.22;5075477;27;97578;-33
2022/12/03 09:35:15;;;;;;;3.85;2.17;;;;;;;2.04;81.80;102369.97;5075501;27;97756;-31
2022/12/03 09:37:40;;;;;;;1.77;1.10;;;;;;;2.08;81.73;102386.00;5075703;27;96569;-32
2022/12/03 09:40:07;;;;;;;13.98;4.88;;;;;;;2.10;81.98;102383.34;5076208;27;96739;-31
2022/12/03 09:42:33;;;;;;;5.18;3.28;;;;;;;2.10;81.83;102380.66;5056724;27;101749;-31
2022/12/03 09:44:59;;;;;;;8.00;3.65;;;;;;;2.12;82.04;102382.44;5075382;27;97834;-31
2022/12/03 09:47:24;;;;;;;12.75;4.05;;;;;;;2.09;81.70;102376.19;5056426;27;96689;-31
2022/12/03 09:49:51;;;;;;;10.82;5.32;;;;;;;2.08;81.79;102378.00;5075823;27;96736;-31
2022/12/03 09:52:24;;;;;;;8.85;5.78;;;;;;;2.07;82.05;102373.56;5056589;27;100833;-32
2022/12/03 09:54:50;;;;;;;6.90;3.55;;;;;;;2.13;82.68;102375.31;5056875;27;100995;-31
2022/12/03 09:57:15;;;;;;;8.32;4.22;;;;;;;2.11;82.31;102375.31;5075395;27;96555;-32
2022/12/03 09:59:41;;;;;;;8.48;4.63;;;;;;;2.12;82.78;102377.09;5075517;27;96773;-31
2022/12/03 10:02:20;;;;;;;5.45;3.33;;;;;;;2.10;82.35;102380.66;5075046;27;98233;-31
2022/12/03 10:04:45;;;;;;;5.57;3.45;;;;;;;2.12;82.59;102382.44;5057089;27;101015;-31
2022/12/03 10:07:11;;;;;;;5.55;2.88;;;;;;;2.09;82.67;102374.41;5075488;27;96601;-31
2022/12/03 10:09:36;;;;;;;8.73;2.00;;;;;;;2.12;82.39;102377.09;5075134;27;96760;-32
2022/12/03 10:12:02;;;;;;;3.42;2.17;;;;;;;2.15;82.48;102381.53;5074714;27;97106;-31
2022/12/03 10:14:27;;;;;;;9.60;3.08;;;;;;;2.11;82.14;102377.97;5074899;27;98380;-32
2022/12/03 10:16:53;;;;;;;1.25;0.90;;;;;;;2.05;81.92;102377.09;5075234;27;96521;-31
2022/12/03 10:19:23;;;;;;;4.13;2.40;;;;;;;2.05;82.20;102374.41;5059768;27;96777;-31
2022/12/03 10:21:49;;;;;;;1.65;1.45;;;;;;;2.04;82.47;102368.19;5059589;27;100809;-31
2022/12/03 10:24:28;;;;;;;6.15;1.00;;;;;;;2.02;82.15;102379.78;5078684;27;98020;-31
2022/12/03 10:26:56;;;;;;;11.77;5.43;;;;;;;2.03;82.41;102373.56;5059942;27;96626;-31
2022/12/03 10:29:33;;;;;;;4.97;2.85;;;;;;;1.98;82.24;102367.31;5060518;27;96877;-31
2022/12/03 10:32:01;;;;;;;7.47;4.03;;;;;;;1.97;82.29;102357.53;5059897;27;100942;-30
2022/12/03 10:34:32;;;;;;;5.90;3.45;;;;;;;1.97;82.36;102363.75;5059915;27;100906;-31
2022/12/03 10:37:17;;;;;;;10.48;3.60;;;;;;;1.99;82.62;102353.94;5078253;27;96549;-31
2022/12/03 10:40:00;;;;;;;7.13;3.45;;;;;;;2.03;82.80;102345.03;5078247;27;96673;-32
2022/12/03 10:42:28;;;;;;;3.92;2.85;;;;;;;2.05;82.79;102351.28;5059777;27;101043;-31
2022/12/03 10:45:12;;;;;;;4.90;2.55;;;;;;;2.05;82.89;102348.59;5059692;27;101215;-31
2022/12/03 10:47:37;;;;;;;6.75;4.25;;;;;;;2.03;83.42;102339.69;5059940;27;96586;-32
2022/12/03 10:50:13;;;;;;;2.70;2.13;;;;;;;2.00;83.25;102338.81;5077606;27;103757;-31
2022/12/03 10:52:38;;;;;;;10.20;3.60;;;;;;;1.96;83.40;102332.59;5059726;27;101069;-31
2022/12/03 10:55:04;;;;;;;14.32;3.75;;;;;;;2.03;83.37;102333.47;5078528;27;97891;-31
2022/12/03 10:57:30;;;;;;;7.28;3.45;;;;;;;2.03;83.26;102334.34;5078349;27;96639;-32
2022/12/03 10:59:56;;;;;;;10.20;3.75;;;;;;;2.04;83.44;102333.44;5059587;27;96749;-31
2022/12/03 11:02:23;;;;;;;7.72;3.90;;;;;;;2.05;83.17;102310.28;5077264;27;97907;-31
2022/12/03 11:04:49;;;;;;;6.88;3.08;;;;;;;2.03;82.86;102325.47;5059334;27;100995;-31
2022/12/03 11:07:17;;;;;;;9.70;4.00;;;;;;;2.02;83.26;102313.84;5059579;27;96540;-31
2022/12/03 11:09:45;;;;;;;10.45;3.92;;;;;;;2.07;83.28;102322.78;5059625;27;96974;-31
2022/12/03 11:12:23;;;;;;;2.95;2.60;;;;;;;2.05;83.37;102319.22;5059038;27;100833;-33
2022/12/03 11:14:53;;;;;;;5.57;2.63;;;;;;;2.02;83.36;102313.84;5042161;27;100870;-31
2022/12/03 11:17:24;;;;;;;5.35;3.20;;;;;;;2.02;83.44;102310.28;5077878;27;96853;-31
2022/12/03 11:19:50;;;;;;;9.37;2.73;;;;;;;2.00;82.98;102312.06;5078007;27;96898;-31
2022/12/03 11:22:24;;;;;;;7.68;3.58;;;;;;;2.01;83.43;102306.75;5058267;27;100803;-32
2022/12/03 11:25:24;;;;;;;7.38;2.80;;;;;;;2.00;83.06;102310.31;5059028;27;101178;-31
2022/12/03 11:28:11;;;;;;;3.28;1.73;;;;;;;1.99;82.96;102304.97;5058537;27;96755;-31
2022/12/03 11:31:00;;;;;;;2.92;2.63;;;;;;;1.94;82.62;102299.63;5076477;27;96811;-31
2022/12/03 11:33:26;;;;;;;8.75;3.83;;;;;;;1.97;83.00;102294.28;5058947;27;101722;-31
2022/12/03 11:36:04;;;;;;;8.52;3.33;;;;;;;1.97;82.81;102288.94;5077555;27;97249;-32
2022/12/03 11:38:44;;;;;;;5.38;2.88;;;;;;;1.96;82.61;102286.28;5077598;27;96640;-30
2022/12/03 11:41:21;;;;;;;4.43;3.08;;;;;;;1.98;82.92;102290.72;5059091;27;96732;-31
2022/12/03 11:43:54;;;;;;;5.22;3.13;;;;;;;2.03;82.96;102285.38;5077380;27;97975;-31
2022/12/03 11:46:26;;;;;;;13.60;5.40;;;;;;;2.03;82.77;102293.38;5077583;27;97836;-31
2022/12/03 11:48:53;;;;;;;9.87;2.07;;;;;;;1.90;82.65;102282.69;5077667;27;96567;-31
2022/12/03 11:51:21;;;;;;;3.85;2.65;;;;;;;1.89;82.70;102270.25;5058885;27;96836;-31
2022/12/03 11:53:48;;;;;;;9.15;4.22;;;;;;;1.92;83.19;102280.03;5057990;27;100889;-31
2022/12/03 11:56:28;;;;;;;10.73;5.85;;;;;;;1.92;82.71;102272.91;5058600;27;99952;-31